Time;durP1;ratioP1;P1;durP2;ratioP2;P2;SDS_P1;SDS_P2;PMS_P1;PMS_P2;Temp;Humidity;BMP_temperature;BMP_pressure;BME280_temperature;BME280_humidity;BME280_pressure;Samples;Min_cycle;Max_cycle;Signal;HPM_P1;HPM_P2
2023/05/05 00:02:00;;;;;;;3.17;1.30;;;16.40;59.90;;;;;;4945708;28;20046;-82
2023/05/05 00:04:26;;;;;;;3.75;2.13;;;16.40;59.90;;;;;;4945066;28;20072;-83
2023/05/05 00:06:52;;;;;;;3.58;1.70;;;16.40;60.10;;;;;;4940290;28;20039;-83
2023/05/05 00:09:18;;;;;;;5.22;1.60;;;16.40;60.10;;;;;;4944919;28;20034;-84
2023/05/05 00:11:44;;;;;;;5.15;1.83;;;16.40;60.20;;;;;;4944430;28;20062;-83
2023/05/05 00:14:10;;;;;;;3.45;1.52;;;16.40;60.20;;;;;;4942517;28;20035;-81
2023/05/05 00:16:36;;;;;;;5.50;2.25;;;16.40;60.20;;;;;;4928816;29;20297;-83
2023/05/05 00:19:02;;;;;;;4.00;2.58;;;16.40;60.30;;;;;;4945826;28;20057;-82
2023/05/05 00:21:28;;;;;;;4.07;1.67;;;16.40;60.30;;;;;;4946311;28;20039;-83
2023/05/05 00:23:54;;;;;;;4.00;1.90;;;16.40;60.40;;;;;;4936065;28;20034;-83
2023/05/05 00:26:20;;;;;;;3.10;1.65;;;16.30;60.20;;;;;;4945064;28;20594;-82
2023/05/05 00:28:49;;;;;;;4.15;1.85;;;16.30;60.20;;;;;;4946002;28;20484;-83
2023/05/05 00:31:16;;;;;;;2.15;1.52;;;16.30;60.30;;;;;;4945114;28;20042;-82
2023/05/05 00:33:41;;;;;;;4.32;1.92;;;16.30;60.30;;;;;;4939664;28;20039;-81
2023/05/05 00:36:09;;;;;;;3.45;2.25;;;16.30;60.40;;;;;;4946019;28;20042;-83
2023/05/05 00:38:35;;;;;;;3.20;1.88;;;16.30;60.40;;;;;;4946446;28;20428;-82
2023/05/05 00:41:01;;;;;;;3.45;1.80;;;16.30;60.50;;;;;;4933402;28;20031;-83
2023/05/05 00:43:27;;;;;;;4.47;1.67;;;16.30;60.50;;;;;;4941689;28;20038;-83
2023/05/05 00:46:02;;;;;;;3.03;2.05;;;16.30;60.50;;;;;;4949352;28;20038;-81
2023/05/05 00:48:32;;;;;;;4.72;2.08;;;16.30;60.70;;;;;;4925502;29;20479;-84
2023/05/05 00:50:58;;;;;;;5.10;2.33;;;16.20;60.50;;;;;;4941555;28;20049;-81
2023/05/05 00:53:26;;;;;;;4.00;2.00;;;16.20;60.60;;;;;;4950219;28;20093;-81
2023/05/05 00:55:52;;;;;;;4.60;2.00;;;16.20;60.70;;;;;;4947685;28;20699;-82
2023/05/05 00:58:18;;;;;;;4.63;3.05;;;16.20;60.70;;;;;;4946272;28;20517;-82
2023/05/05 01:00:44;;;;;;;4.82;2.00;;;16.20;60.80;;;;;;4945124;28;20653;-83
2023/05/05 01:03:14;;;;;;;3.13;2.03;;;16.20;60.90;;;;;;4949530;28;20034;-83
2023/05/05 01:06:09;;;;;;;4.93;2.88;;;16.20;60.90;;;;;;4946704;28;20395;-83
2023/05/05 01:08:49;;;;;;;3.22;2.30;;;16.10;61.00;;;;;;4957446;28;20391;-82
2023/05/05 01:11:40;;;;;;;3.00;2.03;;;16.10;60.90;;;;;;4954807;28;20039;-83
2023/05/05 01:14:18;;;;;;;4.53;1.90;;;16.10;60.90;;;;;;4949203;28;20092;-84
2023/05/05 01:16:57;;;;;;;3.85;2.13;;;16.10;60.90;;;;;;4943323;28;20730;-83
2023/05/05 01:19:38;;;;;;;3.85;1.70;;;16.00;60.80;;;;;;4945884;28;20231;-84
2023/05/05 01:22:10;;;;;;;4.40;1.88;;;16.10;61.00;;;;;;4946719;28;20423;-83
2023/05/05 01:24:42;;;;;;;2.88;2.13;;;16.10;61.00;;;;;;4968681;28;20033;-83
2023/05/05 01:27:58;;;;;;;2.17;1.50;;;16.00;61.00;;;;;;4976943;28;20086;-85
2023/05/05 01:30:52;;;;;;;3.67;2.42;;;16.00;61.10;;;;;;4962858;28;20330;-83
2023/05/05 01:33:24;;;;;;;2.60;1.70;;;16.00;61.00;;;;;;4969146;28;20345;-81
2023/05/05 01:35:54;;;;;;;2.97;1.75;;;16.00;61.00;;;;;;4957838;28;20039;-82
2023/05/05 01:38:25;;;;;;;2.97;1.52;;;16.00;61.00;;;;;;4945308;28;20499;-81
2023/05/05 01:41:00;;;;;;;2.53;1.40;;;16.00;61.10;;;;;;4965928;28;20058;-83
2023/05/05 01:43:31;;;;;;;2.47;1.77;;;16.00;61.20;;;;;;4946651;29;20027;-82
2023/05/05 01:45:59;;;;;;;4.57;2.20;;;15.90;61.00;;;;;;4945285;28;20043;-83
2023/05/05 01:48:25;;;;;;;3.30;1.50;;;15.90;61.10;;;;;;4956206;28;20178;-84
2023/05/05 01:50:52;;;;;;;3.83;1.85;;;15.80;61.00;;;;;;4953533;28;20042;-83
2023/05/05 01:53:20;;;;;;;4.00;1.60;;;15.90;61.20;;;;;;4947494;29;20049;-82
2023/05/05 01:55:49;;;;;;;3.28;1.48;;;15.80;61.10;;;;;;4948193;28;20048;-83
2023/05/05 01:58:16;;;;;;;3.65;1.90;;;15.80;61.20;;;;;;4920101;29;20042;-82
2023/05/05 02:00:43;;;;;;;3.88;2.05;;;15.80;61.30;;;;;;4944020;29;20646;-82
2023/05/05 02:03:12;;;;;;;6.30;2.10;;;15.70;61.20;;;;;;4942718;28;20462;-83
2023/05/05 02:05:39;;;;;;;5.68;2.45;;;15.70;61.30;;;;;;4945611;28;20047;-82
2023/05/05 02:08:07;;;;;;;3.22;1.73;;;15.70;61.40;;;;;;4958761;28;20030;-82
2023/05/05 02:10:34;;;;;;;4.05;1.65;;;15.70;61.40;;;;;;4947537;28;20043;-81
2023/05/05 02:13:03;;;;;;;5.50;1.67;;;15.70;61.50;;;;;;4922894;29;20069;-81
2023/05/05 02:15:30;;;;;;;4.25;2.40;;;15.70;61.50;;;;;;4942104;28;20645;-81
2023/05/05 02:17:59;;;;;;;3.15;1.70;;;15.60;61.40;;;;;;4943533;28;20126;-82
2023/05/05 02:20:27;;;;;;;3.80;1.63;;;15.60;61.40;;;;;;4946978;28;20042;-83
2023/05/05 02:22:53;;;;;;;2.90;1.40;;;15.60;61.50;;;;;;4943681;28;20035;-82
2023/05/05 02:25:20;;;;;;;5.60;2.00;;;15.60;61.60;;;;;;4947566;28;20155;-81
2023/05/05 02:27:49;;;;;;;2.92;1.50;;;15.50;61.40;;;;;;4953254;28;20026;-81
2023/05/05 02:30:18;;;;;;;5.03;1.92;;;15.50;61.50;;;;;;4934737;28;20039;-81
2023/05/05 02:32:52;;;;;;;5.63;1.83;;;15.50;61.60;;;;;;4941691;28;20035;-80
2023/05/05 02:35:21;;;;;;;4.05;1.63;;;15.50;61.70;;;;;;4934347;29;20186;-81
2023/05/05 02:38:04;;;;;;;4.13;2.03;;;15.40;61.50;;;;;;4948821;28;20031;-80
2023/05/05 02:40:37;;;;;;;5.97;2.03;;;15.40;61.60;;;;;;4929429;28;20543;-81
2023/05/05 02:43:07;;;;;;;5.88;1.83;;;15.40;61.70;;;;;;4944793;28;20114;-80
2023/05/05 02:45:33;;;;;;;4.13;2.08;;;15.30;61.50;;;;;;4943601;28;20150;-81
2023/05/05 02:48:03;;;;;;;6.53;1.90;;;15.30;61.60;;;;;;4943498;28;20047;-81
2023/05/05 02:50:32;;;;;;;5.78;1.67;;;15.30;61.70;;;;;;4947265;28;20031;-80
2023/05/05 02:53:10;;;;;;;6.00;2.67;;;15.20;61.60;;;;;;4946396;28;20051;-80
2023/05/05 02:55:44;;;;;;;6.45;1.88;;;15.10;61.50;;;;;;4947094;28;20495;-81
2023/05/05 02:58:29;;;;;;;6.00;2.42;;;15.10;61.60;;;;;;4946496;28;20119;-81
2023/05/05 03:01:20;;;;;;;4.80;2.45;;;15.10;61.70;;;;;;4946634;28;20039;-82
2023/05/05 03:04:11;;;;;;;3.55;1.95;;;15.00;61.70;;;;;;4947760;28;20035;-82
2023/05/05 03:06:48;;;;;;;5.90;2.03;;;15.00;61.70;;;;;;4931491;29;20031;-82
2023/05/05 03:09:26;;;;;;;4.03;1.60;;;14.90;61.50;;;;;;4963288;28;20031;-82
2023/05/05 03:12:20;;;;;;;1.98;1.23;;;14.90;61.60;;;;;;4943328;28;20722;-82
2023/05/05 03:14:59;;;;;;;3.13;1.45;;;14.90;61.90;;;;;;4942343;28;20049;-82
2023/05/05 03:17:29;;;;;;;4.28;1.65;;;14.90;61.70;;;;;;4946591;28;20058;-83
2023/05/05 03:19:56;;;;;;;3.63;2.03;;;14.90;61.80;;;;;;4946545;28;20062;-82
2023/05/05 03:22:22;;;;;;;7.07;1.80;;;14.80;61.70;;;;;;4946779;28;20042;-82
2023/05/05 03:24:50;;;;;;;5.47;1.80;;;14.80;61.80;;;;;;4941437;28;20045;-82
2023/05/05 03:27:18;;;;;;;7.47;2.25;;;14.70;61.70;;;;;;4947651;28;20039;-83
2023/05/05 03:29:44;;;;;;;6.20;1.92;;;14.70;61.70;;;;;;4936062;28;20035;-82
2023/05/05 03:32:14;;;;;;;5.50;1.85;;;14.70;61.80;;;;;;4943892;28;20530;-82
2023/05/05 03:34:41;;;;;;;3.95;1.60;;;14.70;61.90;;;;;;4945829;28;20171;-83
2023/05/05 03:37:07;;;;;;;4.88;1.60;;;14.60;61.80;;;;;;4951428;28;20039;-82
2023/05/05 03:39:33;;;;;;;4.43;1.55;;;14.60;61.80;;;;;;4954072;28;20033;-82
2023/05/05 03:42:00;;;;;;;4.90;2.15;;;14.60;61.90;;;;;;4932419;29;20399;-84
2023/05/05 03:44:30;;;;;;;6.75;2.05;;;14.60;61.90;;;;;;4949752;28;20474;-85
2023/05/05 03:46:56;;;;;;;5.50;1.70;;;14.50;61.80;;;;;;4951858;28;20122;-83
2023/05/05 03:49:22;;;;;;;5.93;2.85;;;14.60;62.00;;;;;;4940096;28;20579;-83
2023/05/05 03:51:49;;;;;;;4.85;2.40;;;14.60;62.10;;;;;;4951913;28;20384;-82
2023/05/05 03:54:15;;;;;;;5.30;2.28;;;14.50;61.90;;;;;;4951533;28;20035;-81
2023/05/05 03:56:42;;;;;;;4.28;1.63;;;14.50;62.00;;;;;;4951526;28;20038;-85
2023/05/05 03:59:08;;;;;;;3.90;1.92;;;14.50;62.10;;;;;;4950483;28;20387;-83
2023/05/05 04:01:34;;;;;;;5.68;2.40;;;14.50;62.10;;;;;;4951336;28;20035;-84
2023/05/05 04:04:00;;;;;;;4.43;1.90;;;14.50;62.10;;;;;;4951314;28;20039;-85
2023/05/05 04:06:26;;;;;;;4.20;1.63;;;14.40;62.00;;;;;;4945665;28;20036;-85
2023/05/05 04:08:53;;;;;;;5.43;1.90;;;14.40;62.00;;;;;;4949584;28;20039;-84
2023/05/05 04:11:20;;;;;;;2.13;1.35;;;14.40;62.10;;;;;;4949309;28;20524;-81
2023/05/05 04:13:48;;;;;;;4.50;1.75;;;14.40;62.10;;;;;;4949302;28;20202;-81
2023/05/05 04:16:15;;;;;;;4.75;2.40;;;14.40;62.10;;;;;;4949061;28;20818;-82
2023/05/05 04:18:41;;;;;;;6.80;2.00;;;14.40;62.20;;;;;;4949364;28;20035;-82
2023/05/05 04:21:08;;;;;;;3.88;2.10;;;14.30;62.10;;;;;;4944596;28;20032;-82
2023/05/05 04:23:34;;;;;;;6.28;2.10;;;14.30;62.10;;;;;;4959968;28;20035;-81
2023/05/05 04:26:00;;;;;;;2.85;1.75;;;14.30;62.20;;;;;;4944130;28;20173;-82
2023/05/05 04:28:27;;;;;;;4.82;2.10;;;14.30;62.30;;;;;;4954988;28;20035;-83
2023/05/05 04:30:52;;;;;;;5.50;2.30;;;14.30;62.20;;;;;;4938365;29;20035;-82
2023/05/05 04:33:19;;;;;;;6.22;2.25;;;14.20;62.10;;;;;;4949691;28;20129;-82
2023/05/05 04:35:47;;;;;;;4.25;2.22;;;14.20;62.20;;;;;;4948589;29;20038;-82
2023/05/05 04:38:13;;;;;;;5.90;2.20;;;14.20;62.20;;;;;;4948888;28;20502;-82
2023/05/05 04:40:42;;;;;;;5.70;2.33;;;14.20;62.30;;;;;;4949819;29;20043;-82
2023/05/05 04:43:09;;;;;;;5.50;2.22;;;14.20;62.30;;;;;;4946982;29;20052;-83
2023/05/05 04:45:36;;;;;;;6.10;2.42;;;14.20;62.30;;;;;;4945935;28;20046;-81
2023/05/05 04:48:03;;;;;;;5.88;2.30;;;14.10;62.20;;;;;;4942266;28;20047;-82
2023/05/05 04:50:30;;;;;;;4.63;2.15;;;14.10;62.30;;;;;;4944591;28;20098;-82
2023/05/05 04:52:56;;;;;;;2.47;1.63;;;14.20;62.50;;;;;;4944016;28;20070;-82
2023/05/05 04:55:23;;;;;;;7.22;2.10;;;14.10;62.40;;;;;;4961077;28;20020;-82
2023/05/05 04:57:49;;;;;;;4.18;1.70;;;14.10;62.40;;;;;;4948301;28;20046;-84
2023/05/05 05:00:15;;;;;;;4.70;1.95;;;14.10;62.40;;;;;;4948977;28;20028;-80
2023/05/05 05:02:41;;;;;;;3.88;2.10;;;14.20;62.60;;;;;;4943764;28;21328;-82
2023/05/05 05:05:08;;;;;;;4.18;1.95;;;14.20;62.60;;;;;;4927482;28;20023;-81
2023/05/05 05:07:34;;;;;;;5.57;2.00;;;14.20;62.50;;;;;;4944777;28;20484;-81
2023/05/05 05:10:03;;;;;;;3.90;1.80;;;14.20;62.50;;;;;;4943097;28;20044;-82
2023/05/05 05:12:29;;;;;;;3.88;2.08;;;14.20;62.50;;;;;;4941443;28;20106;-83
2023/05/05 05:14:55;;;;;;;4.65;2.92;;;14.30;62.60;;;;;;4935720;28;20476;-83
2023/05/05 05:17:22;;;;;;;3.70;1.75;;;14.30;62.50;;;;;;4935350;28;20031;-83
2023/05/05 05:19:48;;;;;;;3.47;2.13;;;14.40;62.70;;;;;;4940712;28;20041;-82
2023/05/05 05:22:15;;;;;;;2.30;1.95;;;14.30;62.50;;;;;;4937879;28;20077;-84
2023/05/05 05:24:42;;;;;;;2.83;1.65;;;14.30;62.50;;;;;;4941600;28;20043;-83
2023/05/05 05:27:10;;;;;;;5.43;2.65;;;14.40;62.70;;;;;;4932873;28;20448;-84
2023/05/05 05:29:40;;;;;;;6.60;2.10;;;14.40;62.60;;;;;;4945097;28;20022;-82
2023/05/05 05:32:06;;;;;;;7.28;2.72;;;14.40;62.60;;;;;;4936831;28;20036;-83
2023/05/05 05:34:32;;;;;;;4.57;2.40;;;14.40;62.70;;;;;;4945319;28;20035;-80
2023/05/05 05:36:58;;;;;;;4.43;2.35;;;14.40;62.70;;;;;;4940208;28;20078;-81
2023/05/05 05:39:24;;;;;;;3.95;2.13;;;14.50;62.80;;;;;;4939779;28;20039;-85
2023/05/05 05:41:50;;;;;;;4.93;2.00;;;14.50;62.80;;;;;;4949846;28;20607;-78
2023/05/05 05:44:17;;;;;;;2.53;2.20;;;14.50;62.80;;;;;;4940389;28;20051;-83
2023/05/05 05:46:43;;;;;;;3.22;1.90;;;14.60;63.00;;;;;;4927405;29;20051;-81
2023/05/05 05:49:09;;;;;;;3.83;1.90;;;14.60;62.90;;;;;;4944812;28;20106;-81
2023/05/05 05:51:35;;;;;;;5.97;2.75;;;14.70;63.00;;;;;;4934856;28;20078;-83
2023/05/05 05:54:01;;;;;;;3.80;2.08;;;14.70;63.00;;;;;;4947569;28;20063;-81
2023/05/05 05:56:27;;;;;;;3.53;1.80;;;14.80;63.10;;;;;;4961955;28;20159;-82
2023/05/05 05:58:54;;;;;;;4.95;2.22;;;14.90;63.20;;;;;;4947889;28;20047;-79
2023/05/05 06:01:20;;;;;;;3.40;1.85;;;14.90;63.10;;;;;;4951259;29;20039;-78
2023/05/05 06:03:47;;;;;;;2.95;2.03;;;14.90;63.10;;;;;;4957423;28;20011;-78
2023/05/05 06:06:13;;;;;;;7.00;3.17;;;14.90;63.10;;;;;;4941228;28;20031;-82
2023/05/05 06:08:39;;;;;;;3.20;1.95;;;14.90;63.10;;;;;;4941096;28;20050;-80
2023/05/05 06:11:05;;;;;;;4.45;2.33;;;14.90;63.20;;;;;;4938924;28;20047;-80
2023/05/05 06:13:31;;;;;;;9.02;2.30;;;15.00;63.30;;;;;;4934415;28;20046;-83
2023/05/05 06:15:57;;;;;;;7.80;2.10;;;15.00;63.30;;;;;;4943255;28;20157;-81
2023/05/05 06:18:23;;;;;;;5.15;2.17;;;15.00;63.30;;;;;;4939530;28;20816;-85
2023/05/05 06:20:49;;;;;;;2.88;1.83;;;15.10;63.30;;;;;;4938606;28;20443;-83
2023/05/05 06:23:16;;;;;;;4.22;1.70;;;15.20;63.50;;;;;;4938386;28;21074;-84
2023/05/05 06:25:47;;;;;;;5.53;2.10;;;15.20;63.40;;;;;;4928326;29;20035;-81
2023/05/05 06:28:13;;;;;;;3.50;1.83;;;15.30;63.40;;;;;;4940841;28;20027;-82
2023/05/05 06:30:39;;;;;;;5.30;2.10;;;15.30;63.30;;;;;;4930410;28;20137;-81
2023/05/05 06:33:05;;;;;;;8.48;3.47;;;15.40;63.50;;;;;;4939511;28;20043;-80
2023/05/05 06:35:31;;;;;;;5.00;2.25;;;15.40;63.40;;;;;;4934109;28;20034;-82
2023/05/05 06:37:57;;;;;;;5.18;1.70;;;15.50;63.50;;;;;;4941401;28;20512;-80
2023/05/05 06:40:23;;;;;;;4.82;2.03;;;15.60;63.60;;;;;;4946996;28;20034;-81
2023/05/05 06:42:49;;;;;;;4.95;2.30;;;15.60;63.50;;;;;;4934147;28;20031;-80
2023/05/05 06:45:21;;;;;;;2.75;1.63;;;15.70;63.50;;;;;;4943078;28;20031;-80
2023/05/05 06:47:48;;;;;;;6.35;2.33;;;15.80;63.50;;;;;;4938026;28;20445;-80
2023/05/05 06:50:14;;;;;;;5.78;2.90;;;15.90;63.60;;;;;;4938878;28;20042;-80
2023/05/05 06:52:40;;;;;;;5.78;2.30;;;16.00;63.60;;;;;;4939204;28;20046;-81
2023/05/05 06:55:06;;;;;;;3.05;1.88;;;16.10;63.60;;;;;;4934822;28;20039;-81
2023/05/05 06:57:32;;;;;;;6.90;2.60;;;16.20;63.50;;;;;;4933975;28;20121;-81
2023/05/05 06:59:58;;;;;;;4.47;2.38;;;16.30;63.50;;;;;;4940056;28;20027;-81
2023/05/05 07:02:24;;;;;;;4.70;1.85;;;16.40;63.50;;;;;;4941083;28;20086;-80
2023/05/05 07:04:49;;;;;;;3.08;1.98;;;16.50;63.50;;;;;;4933568;28;20039;-80
2023/05/05 07:07:15;;;;;;;8.70;2.70;;;16.60;63.40;;;;;;4939541;28;20054;-81
2023/05/05 07:09:41;;;;;;;4.78;2.00;;;16.70;63.40;;;;;;4943762;28;20043;-82
2023/05/05 07:12:07;;;;;;;2.97;1.65;;;16.80;63.40;;;;;;4933328;28;20050;-81
2023/05/05 07:14:33;;;;;;;5.03;2.45;;;16.80;63.30;;;;;;4938937;28;20074;-81
2023/05/05 07:16:59;;;;;;;3.03;1.55;;;16.80;63.30;;;;;;4937317;28;20377;-82
2023/05/05 07:19:25;;;;;;;3.92;1.70;;;16.90;63.50;;;;;;4932434;28;20409;-79
2023/05/05 07:21:51;;;;;;;4.82;1.98;;;16.90;63.50;;;;;;4936676;28;20039;-80
2023/05/05 07:24:17;;;;;;;3.03;1.42;;;16.90;63.60;;;;;;4937805;28;20369;-79
2023/05/05 07:26:43;;;;;;;3.50;1.73;;;16.90;63.50;;;;;;4940680;28;20512;-80
2023/05/05 07:29:09;;;;;;;3.50;1.75;;;17.00;63.60;;;;;;4937468;28;20235;-80
2023/05/05 07:31:35;;;;;;;9.38;3.20;;;17.00;63.50;;;;;;4931664;28;20058;-79
2023/05/05 07:34:01;;;;;;;2.78;1.25;;;17.10;63.50;;;;;;4938049;28;20502;-79
2023/05/05 07:36:27;;;;;;;3.95;1.70;;;17.20;63.60;;;;;;4940422;28;20047;-80
2023/05/05 07:38:53;;;;;;;2.80;1.48;;;17.20;63.50;;;;;;4931928;28;20115;-80
2023/05/05 07:41:20;;;;;;;3.47;1.80;;;17.30;63.50;;;;;;4930821;28;20031;-80
2023/05/05 07:43:45;;;;;;;4.60;1.60;;;17.40;63.50;;;;;;4934295;28;20578;-81
2023/05/05 07:46:12;;;;;;;3.47;1.63;;;17.50;63.40;;;;;;4934221;28;20031;-82
2023/05/05 07:48:40;;;;;;;2.20;1.67;;;17.60;63.40;;;;;;4940178;28;20058;-80
2023/05/05 07:51:06;;;;;;;3.50;1.55;;;17.70;63.30;;;;;;4954497;28;20085;-82
2023/05/05 07:53:32;;;;;;;2.88;1.58;;;17.70;63.20;;;;;;4937762;28;20074;-81
2023/05/05 07:55:58;;;;;;;3.55;1.58;;;17.90;63.40;;;;;;4944913;28;20090;-81
2023/05/05 07:58:24;;;;;;;2.05;1.50;;;17.90;63.30;;;;;;4938075;28;20160;-80
2023/05/05 08:00:50;;;;;;;3.53;1.77;;;18.00;63.20;;;;;;4947704;28;20544;-82
2023/05/05 08:03:18;;;;;;;2.25;1.15;;;18.10;63.20;;;;;;4944663;28;20387;-80
2023/05/05 08:05:44;;;;;;;5.10;1.85;;;18.30;63.30;;;;;;4935994;28;20012;-80
2023/05/05 08:08:10;;;;;;;3.65;1.70;;;18.50;63.30;;;;;;4943883;28;20397;-81
2023/05/05 08:10:36;;;;;;;3.08;1.20;;;18.60;63.10;;;;;;4942072;28;20175;-81
2023/05/05 08:13:02;;;;;;;2.92;1.40;;;18.70;62.90;;;;;;4937056;28;20615;-81
2023/05/05 08:15:28;;;;;;;2.30;1.38;;;18.90;63.00;;;;;;4938774;28;20377;-81
2023/05/05 08:17:54;;;;;;;2.80;1.20;;;19.10;62.90;;;;;;4939571;28;20299;-82
2023/05/05 08:20:21;;;;;;;3.45;1.27;;;19.40;62.90;;;;;;4943565;28;20136;-81
2023/05/05 08:22:47;;;;;;;5.88;1.50;;;19.60;62.80;;;;;;4935840;28;20027;-83
2023/05/05 08:25:13;;;;;;;3.67;1.60;;;19.70;62.50;;;;;;4943377;28;20432;-81
2023/05/05 08:27:40;;;;;;;4.55;1.33;;;19.80;62.40;;;;;;4944739;28;20118;-82
2023/05/05 08:30:07;;;;;;;5.07;1.83;;;19.90;62.40;;;;;;4941713;28;20120;-82
2023/05/05 08:32:33;;;;;;;3.53;1.38;;;20.00;62.40;;;;;;4939201;28;20046;-82
2023/05/05 08:35:03;;;;;;;4.50;1.55;;;20.10;62.50;;;;;;4941462;28;20035;-82
2023/05/05 08:37:29;;;;;;;6.15;1.85;;;20.20;62.50;;;;;;4941032;28;20046;-81
2023/05/05 08:39:56;;;;;;;3.40;1.60;;;20.20;62.30;;;;;;4941910;28;20034;-82
2023/05/05 08:42:23;;;;;;;3.15;1.98;;;20.30;62.30;;;;;;4939045;28;20068;-83
2023/05/05 08:44:49;;;;;;;3.58;1.38;;;20.50;62.50;;;;;;4940759;28;20034;-82
2023/05/05 08:47:16;;;;;;;3.78;1.48;;;20.70;62.40;;;;;;4942186;28;20426;-81
2023/05/05 08:49:46;;;;;;;4.82;2.53;;;21.00;62.30;;;;;;4924254;28;20442;-82
2023/05/05 08:52:21;;;;;;;3.10;1.35;;;21.30;62.10;;;;;;4936620;28;20174;-81
2023/05/05 08:55:03;;;;;;;3.15;1.80;;;21.50;61.90;;;;;;4945544;28;20050;-81
2023/05/05 08:57:38;;;;;;;5.00;1.85;;;21.70;61.70;;;;;;4944544;28;20134;-80
2023/05/05 09:00:04;;;;;;;2.90;1.10;;;21.90;61.70;;;;;;4941820;28;20047;-80
2023/05/05 09:02:31;;;;;;;4.72;1.35;;;22.00;61.60;;;;;;4942562;28;20125;-80
2023/05/05 09:04:59;;;;;;;3.55;1.48;;;22.10;61.40;;;;;;4941559;28;20039;-80
2023/05/05 09:07:25;;;;;;;3.63;1.58;;;22.20;61.30;;;;;;4936316;28;20119;-82
2023/05/05 09:09:51;;;;;;;4.18;1.70;;;22.30;61.30;;;;;;4937749;28;20039;-82
2023/05/05 09:12:18;;;;;;;3.50;1.35;;;22.40;61.10;;;;;;4940931;28;20086;-81
2023/05/05 09:14:45;;;;;;;6.68;1.98;;;22.50;60.90;;;;;;4940927;28;20043;-82
2023/05/05 09:17:24;;;;;;;3.60;1.40;;;22.60;60.80;;;;;;4941550;28;20066;-83
2023/05/05 09:20:06;;;;;;;2.78;1.10;;;22.80;60.80;;;;;;4946416;28;20034;-82
2023/05/05 09:22:36;;;;;;;4.47;1.73;;;22.90;60.60;;;;;;4940725;28;20439;-82
2023/05/05 09:25:03;;;;;;;2.85;1.38;;;23.20;60.70;;;;;;4940463;28;20491;-80
2023/05/05 09:27:29;;;;;;;3.78;1.30;;;23.40;60.60;;;;;;4945494;28;20054;-81
2023/05/05 09:29:56;;;;;;;3.40;1.27;;;23.50;60.30;;;;;;4939272;28;20054;-81
2023/05/05 09:32:22;;;;;;;2.15;1.30;;;23.60;60.10;;;;;;4939344;28;20137;-81
2023/05/05 09:34:59;;;;;;;4.65;1.52;;;23.60;59.90;;;;;;4941422;28;20487;-81
2023/05/05 09:37:30;;;;;;;5.68;1.80;;;23.70;59.80;;;;;;4939822;28;20335;-81
2023/05/05 09:39:59;;;;;;;3.65;1.38;;;23.70;59.70;;;;;;4930602;28;20035;-81
2023/05/05 09:42:26;;;;;;;3.20;1.20;;;23.80;59.70;;;;;;4934890;28;20742;-81
2023/05/05 09:44:53;;;;;;;3.13;1.85;;;23.90;59.60;;;;;;4935237;28;20035;-82
2023/05/05 09:47:19;;;;;;;1.70;1.10;;;24.10;59.60;;;;;;4939753;28;20055;-84
2023/05/05 09:49:57;;;;;;;4.15;1.27;;;24.20;59.30;;;;;;4937890;28;20202;-82
2023/05/05 09:52:23;;;;;;;3.67;1.38;;;24.30;58.90;;;;;;4941680;28;20050;-80
2023/05/05 09:54:55;;;;;;;3.28;1.45;;;24.30;58.90;;;;;;4940179;28;20274;-79
2023/05/05 09:57:32;;;;;;;2.60;1.35;;;24.30;58.90;;;;;;4940092;28;20130;-81
2023/05/05 10:00:00;;;;;;;4.15;1.27;;;24.30;58.90;;;;;;4941058;28;20047;-79
2023/05/05 10:02:34;;;;;;;4.60;1.33;;;24.40;58.90;;;;;;4940466;28;20023;-82
2023/05/05 10:05:15;;;;;;;4.45;1.35;;;24.50;58.80;;;;;;4940678;28;20257;-81
2023/05/05 10:07:43;;;;;;;4.03;1.30;;;24.50;58.40;;;;;;4941471;28;20341;-82
2023/05/05 10:10:15;;;;;;;2.67;1.40;;;24.50;58.40;;;;;;4936368;28;20134;-81
2023/05/05 10:12:41;;;;;;;4.30;1.30;;;24.50;58.40;;;;;;4938963;28;20506;-81
2023/05/05 10:15:10;;;;;;;3.22;1.10;;;24.70;58.60;;;;;;4945208;28;20054;-81
2023/05/05 10:17:41;;;;;;;2.92;0.82;;;24.90;58.50;;;;;;4937408;28;20044;-81
2023/05/05 10:20:09;;;;;;;4.13;1.33;;;25.10;58.20;;;;;;4951970;28;20039;-81
2023/05/05 10:22:35;;;;;;;3.40;1.15;;;25.30;57.90;;;;;;4928470;28;20035;-82
2023/05/05 10:25:11;;;;;;;2.92;1.10;;;25.50;57.70;;;;;;4935824;28;20498;-82
2023/05/05 10:27:51;;;;;;;2.00;1.10;;;25.60;57.40;;;;;;4933459;28;20040;-82
2023/05/05 10:30:29;;;;;;;2.03;1.08;;;25.80;57.00;;;;;;4935267;28;20373;-81
2023/05/05 10:33:08;;;;;;;2.10;1.08;;;25.90;56.60;;;;;;4936322;28;20063;-82
2023/05/05 10:35:39;;;;;;;2.70;0.90;;;26.00;56.40;;;;;;4944207;28;20311;-81
2023/05/05 10:38:08;;;;;;;3.00;1.00;;;26.20;56.40;;;;;;4954402;28;20194;-80
2023/05/05 10:40:34;;;;;;;2.72;0.98;;;26.40;56.00;;;;;;4943056;28;20615;-83
2023/05/05 10:43:04;;;;;;;2.88;1.15;;;26.70;55.60;;;;;;4938650;28;20031;-79
2023/05/05 10:45:30;;;;;;;2.40;0.93;;;27.00;55.10;;;;;;4938513;28;20113;-82
2023/05/05 10:47:59;;;;;;;3.08;1.08;;;27.00;54.70;;;;;;4949408;28;20261;-81
2023/05/05 10:51:05;;;;;;;2.05;0.85;;;27.00;54.60;;;;;;4980427;28;20054;-83
2023/05/05 10:53:40;;;;;;;3.03;1.35;;;27.00;54.60;;;;;;4956232;28;20072;-80
2023/05/05 10:56:19;;;;;;;2.40;0.77;;;27.00;54.60;;;;;;4956806;28;20099;-81
2023/05/05 10:58:45;;;;;;;1.95;0.85;;;27.20;54.50;;;;;;4962488;28;20175;-78
2023/05/05 11:01:26;;;;;;;2.13;1.10;;;27.40;54.10;;;;;;4964162;28;20078;-79
2023/05/05 11:04:16;;;;;;;2.28;0.90;;;27.70;53.80;;;;;;4957340;28;20032;-78
2023/05/05 11:07:08;;;;;;;2.22;1.05;;;28.00;53.10;;;;;;4964020;28;20028;-80
2023/05/05 11:09:41;;;;;;;1.50;0.82;;;28.20;52.70;;;;;;4942818;28;20137;-81
2023/05/05 11:12:08;;;;;;;2.20;0.70;;;28.40;52.80;;;;;;4939117;28;20040;-77
2023/05/05 11:14:34;;;;;;;3.25;0.98;;;28.60;52.40;;;;;;4936047;28;20031;-77
2023/05/05 11:17:00;;;;;;;2.30;0.95;;;28.80;52.40;;;;;;4917952;29;20558;-78
2023/05/05 11:19:41;;;;;;;21.00;1.58;;;29.10;51.70;;;;;;4938469;28;20043;-78
2023/05/05 11:22:08;;;;;;;1.85;0.80;;;29.30;51.20;;;;;;4937660;28;20031;-78
2023/05/05 11:24:35;;;;;;;1.40;0.80;;;29.40;51.10;;;;;;4935787;28;20500;-79
2023/05/05 11:27:02;;;;;;;2.08;0.70;;;29.50;51.00;;;;;;4931384;28;20668;-79
2023/05/05 11:30:05;;;;;;;1.80;0.90;;;29.50;50.80;;;;;;4930532;28;20510;-79
2023/05/05 11:32:32;;;;;;;1.73;0.82;;;29.70;50.40;;;;;;4947949;28;20042;-79
2023/05/05 11:35:00;;;;;;;2.15;0.90;;;29.80;50.50;;;;;;4918212;29;20050;-83
2023/05/05 11:37:29;;;;;;;2.38;1.02;;;29.80;50.20;;;;;;4940883;28;20054;-84
2023/05/05 11:40:19;;;;;;;1.67;0.60;;;29.80;50.10;;;;;;4947071;28;20226;-82
2023/05/05 11:42:45;;;;;;;2.00;0.80;;;29.60;50.00;;;;;;4932303;28;20550;-82
2023/05/05 11:45:22;;;;;;;1.42;0.80;;;29.40;50.40;;;;;;4933325;28;20153;-82
2023/05/05 11:47:48;;;;;;;3.28;0.90;;;29.10;50.40;;;;;;4933902;28;20287;-83
2023/05/05 11:50:16;;;;;;;4.15;1.38;;;28.90;50.90;;;;;;4934758;28;20040;-81
2023/05/05 11:52:42;;;;;;;1.73;1.05;;;28.50;51.00;;;;;;4935373;28;20051;-82
2023/05/05 11:55:09;;;;;;;4.10;1.27;;;28.30;51.30;;;;;;4938151;28;20428;-83
2023/05/05 11:57:35;;;;;;;2.25;1.27;;;28.00;51.40;;;;;;4956328;28;20061;-83
2023/05/05 12:00:03;;;;;;;3.92;1.08;;;27.80;51.50;;;;;;4943350;28;20555;-80
2023/05/05 12:02:31;;;;;;;5.03;1.60;;;27.50;51.50;;;;;;4947747;28;20080;-81
2023/05/05 12:04:58;;;;;;;2.53;0.90;;;27.20;51.80;;;;;;4945526;28;20199;-79
2023/05/05 12:07:26;;;;;;;4.18;1.13;;;26.90;52.00;;;;;;4945710;28;20040;-82
2023/05/05 12:09:54;;;;;;;4.18;1.05;;;26.70;52.10;;;;;;4943201;28;20031;-82
2023/05/05 12:12:20;;;;;;;2.20;1.02;;;26.60;52.20;;;;;;4946139;28;20043;-83
2023/05/05 12:14:51;;;;;;;4.63;1.08;;;26.50;52.20;;;;;;4954059;28;20031;-83
2023/05/05 12:17:19;;;;;;;2.95;1.00;;;26.50;52.20;;;;;;4947126;28;20430;-83
2023/05/05 12:19:53;;;;;;;4.82;1.75;;;26.50;52.00;;;;;;4944720;28;20043;-83
2023/05/05 12:22:23;;;;;;;3.67;1.00;;;26.80;51.90;;;;;;4945788;28;20822;-82
2023/05/05 12:25:06;;;;;;;2.38;1.02;;;26.90;51.60;;;;;;4958474;28;20038;-81
2023/05/05 12:27:34;;;;;;;2.35;0.98;;;27.10;51.20;;;;;;4945288;28;20043;-82
2023/05/05 12:30:16;;;;;;;2.55;0.82;;;27.10;51.20;;;;;;4938334;28;20039;-83
2023/05/05 12:32:43;;;;;;;3.60;1.02;;;27.10;51.00;;;;;;4939072;28;20050;-84
2023/05/05 12:35:13;;;;;;;2.60;0.82;;;27.20;51.10;;;;;;4940196;28;20031;-85
2023/05/05 12:37:39;;;;;;;2.40;0.70;;;27.20;50.90;;;;;;4936727;28;20109;-84
2023/05/05 12:40:07;;;;;;;2.33;0.82;;;27.20;50.90;;;;;;4945139;28;20598;-82
2023/05/05 12:42:40;;;;;;;4.07;1.42;;;27.40;50.70;;;;;;4928172;28;20313;-82
2023/05/05 12:45:14;;;;;;;4.53;1.35;;;27.50;50.40;;;;;;4941371;28;20811;-82
2023/05/05 12:47:42;;;;;;;4.57;1.27;;;27.50;50.40;;;;;;4948802;28;20539;-82
2023/05/05 12:50:09;;;;;;;5.57;1.30;;;27.40;50.40;;;;;;4939603;28;20114;-82
2023/05/05 12:52:44;;;;;;;5.07;1.10;;;27.40;50.50;;;;;;4938217;28;20153;-81
2023/05/05 12:55:10;;;;;;;2.53;0.95;;;27.30;50.50;;;;;;4934510;28;20752;-82
2023/05/05 12:57:37;;;;;;;3.15;1.10;;;27.30;50.70;;;;;;4941259;28;20043;-82
2023/05/05 13:00:14;;;;;;;4.60;1.52;;;27.20;50.80;;;;;;4935030;28;20074;-82